Time;durP1;ratioP1;P1;durP2;ratioP2;P2;SDS_P1;SDS_P2;PMS_P1;PMS_P2;Temp;Humidity;BMP_temperature;BMP_pressure;BME280_temperature;BME280_humidity;BME280_pressure;Samples;Min_cycle;Max_cycle;Signal;HPM_P1;HPM_P2
2022/12/28 00:00:21;;;;;;;;;29.75;29.50;;;;;12.17;78.47;-19536.94;4863552;29;45526;-84
2022/12/28 00:02:46;;;;;;;;;35.75;33.25;;;;;12.00;78.32;-19532.47;4843635;29;45473;-84
2022/12/28 00:05:12;;;;;;;;;37.25;33.75;;;;;11.85;78.26;-19528.44;4842703;29;45453;-84
2022/12/28 00:07:37;;;;;;;;;34.00;31.75;;;;;12.23;78.50;-19538.41;4851876;29;45543;-85
2022/12/28 00:10:03;;;;;;;;;36.50;33.75;;;;;12.12;78.26;-19535.59;4849540;29;45468;-85
2022/12/28 00:12:29;;;;;;;;;33.50;31.00;;;;;12.10;78.33;-19534.91;4844410;29;45507;-84
2022/12/28 00:14:54;;;;;;;;;36.50;33.50;;;;;12.08;78.17;-19534.50;4859152;29;45550;-83
2022/12/28 00:17:20;;;;;;;;;39.00;35.00;;;;;12.26;78.00;-19539.22;4851065;29;46231;-82
2022/12/28 00:19:45;;;;;;;;;30.00;29.50;;;;;12.02;77.84;-19533.03;4861746;29;45392;-84
2022/12/28 00:22:10;;;;;;;;;34.75;30.75;;;;;12.29;78.05;-19539.88;4861181;29;45729;-84
2022/12/28 00:24:36;;;;;;;;;28.25;28.25;;;;;12.29;78.10;-19539.88;4862347;29;45395;-83
2022/12/28 00:27:01;;;;;;;;;26.00;26.00;;;;;12.26;78.00;-19539.22;4847972;29;46600;-84
2022/12/28 00:29:27;;;;;;;;;30.50;30.00;;;;;12.04;78.61;-19533.44;4858027;29;45486;-84
2022/12/28 00:31:52;;;;;;;;;31.25;28.75;;;;;12.27;77.99;-19539.50;4848423;29;45324;-84
2022/12/28 00:34:18;;;;;;;;;33.50;32.00;;;;;12.22;78.15;-19538.13;4854457;29;45227;-84
2022/12/28 00:36:43;;;;;;;;;28.25;28.00;;;;;12.33;78.21;-19541.09;4847900;29;47081;-84
2022/12/28 00:39:08;;;;;;;;;27.00;27.00;;;;;12.35;78.05;-19541.63;4861536;29;45775;-84
2022/12/28 00:41:34;;;;;;;;;27.00;27.00;;;;;12.37;77.93;-19542.03;4846539;29;45449;-84
2022/12/28 00:43:59;;;;;;;;;28.00;28.00;;;;;11.65;77.75;-19523.06;4855151;29;45487;-85
2022/12/28 00:46:24;;;;;;;;;21.75;21.75;;;;;12.39;78.01;-19542.59;4861486;29;46346;-84
2022/12/28 00:48:50;;;;;;;;;26.00;25.00;;;;;11.75;77.94;-19525.75;4845197;29;45451;-84
2022/12/28 00:51:18;;;;;;;;;25.25;25.25;;;;;12.27;77.60;-19539.34;4858727;29;46029;-84
2022/12/28 00:53:44;;;;;;;;;26.50;26.50;;;;;12.37;77.78;-19542.19;4852139;29;45439;-84
2022/12/28 00:56:11;;;;;;;;;24.50;24.50;;;;;12.38;77.76;-19542.44;4855759;29;46977;-84
2022/12/28 00:58:36;;;;;;;;;28.00;27.75;;;;;12.39;77.94;-19542.59;4861915;29;45348;-84
2022/12/28 01:01:03;;;;;;;;;31.50;30.75;;;;;12.38;78.21;-19542.44;4856679;29;45514;-84
2022/12/28 01:03:29;;;;;;;;;35.50;32.00;;;;;12.40;77.93;-19542.97;4860428;29;45590;-84
2022/12/28 01:05:54;;;;;;;;;38.50;35.00;;;;;12.38;78.05;-19542.44;4851286;29;47383;-84
2022/12/28 01:08:20;;;;;;;;;42.75;37.00;;;;;12.29;78.27;-19539.88;4838635;29;46094;-84
2022/12/28 01:10:45;;;;;;;;;42.00;35.75;;;;;12.16;78.29;-19536.53;4846010;29;45409;-84
2022/12/28 01:13:10;;;;;;;;;36.00;33.25;;;;;12.17;78.33;-19536.78;4853454;29;45448;-84
2022/12/28 01:15:37;;;;;;;;;22.75;22.75;;;;;12.46;78.69;-19544.47;4843082;29;45496;-83
2022/12/28 01:18:03;;;;;;;;;23.25;23.25;;;;;12.46;78.24;-19544.47;4856654;29;45363;-84
2022/12/28 01:20:28;;;;;;;;;21.00;21.00;;;;;12.45;78.46;-19544.19;4861563;29;45392;-83
2022/12/28 01:22:54;;;;;;;;;28.00;28.00;;;;;12.48;78.53;-19545.00;4850326;29;45661;-84
2022/12/28 01:25:20;;;;;;;;;30.00;28.50;;;;;12.45;78.56;-19544.19;4860756;29;47430;-84
2022/12/28 01:27:45;;;;;;;;;43.25;37.50;;;;;12.44;78.73;-19544.06;4855219;29;45345;-84
2022/12/28 01:30:13;;;;;;;;;43.33;37.67;;;;;12.10;78.38;-19534.91;4861108;29;45512;-84
2022/12/28 01:32:39;;;;;;;;;41.25;36.75;;;;;12.44;78.19;-19544.06;4853630;29;45633;-84
2022/12/28 01:35:05;;;;;;;;;28.00;28.00;;;;;11.98;78.11;-19531.94;4846243;29;45399;-84
2022/12/28 01:37:30;;;;;;;;;29.50;29.50;;;;;12.43;78.11;-19543.78;4855361;29;45537;-83
2022/12/28 01:39:55;;;;;;;;;28.50;27.75;;;;;11.56;77.77;-19520.88;4849727;29;45312;-84
2022/12/28 01:42:20;;;;;;;;;26.50;26.50;;;;;12.46;78.17;-19544.59;4854986;29;45602;-84
2022/12/28 01:44:48;;;;;;;;;25.00;24.25;;;;;12.49;77.78;-19545.13;4859998;29;45487;-83
2022/12/28 01:47:18;;;;;;;;;21.25;21.25;;;;;12.49;77.53;-19545.13;4851126;29;45888;-83
2022/12/28 01:49:49;;;;;;;;;26.25;25.00;;;;;12.46;77.37;-19544.59;4864386;29;45421;-84
2022/12/28 01:52:20;;;;;;;;;27.75;27.25;;;;;12.44;77.64;-19544.06;4860333;29;45289;-83
2022/12/28 01:54:51;;;;;;;;;25.50;23.50;;;;;12.43;77.56;-19543.66;4860091;29;45501;-83
2022/12/28 01:57:18;;;;;;;;;30.00;28.00;;;;;12.45;77.63;-19544.19;4858285;29;45984;-83
2022/12/28 01:59:50;;;;;;;;;24.75;24.25;;;;;12.23;77.78;-19538.41;4853716;29;45487;-83
2022/12/28 02:02:16;;;;;;;;;24.50;24.50;;;;;12.48;77.67;-19545.00;4851656;29;45477;-83
2022/12/28 02:04:43;;;;;;;;;23.25;21.50;;;;;11.94;77.63;-19530.72;4857233;29;46074;-83
2022/12/28 02:07:08;;;;;;;;;26.00;24.75;;;;;12.37;77.56;-19542.03;4857243;29;45532;-84
2022/12/28 02:09:39;;;;;;;;;24.75;23.50;;;;;12.23;77.40;-19538.41;4854368;29;45304;-84
2022/12/28 02:12:09;;;;;;;;;23.75;22.50;;;;;12.43;77.87;-19543.78;4848299;29;45471;-84
2022/12/28 02:14:35;;;;;;;;;24.50;24.50;;;;;11.86;77.94;-19528.72;4854193;29;47186;-84
2022/12/28 02:17:01;;;;;;;;;24.25;24.25;;;;;12.29;77.75;-19540.03;4851962;29;45333;-84
2022/12/28 02:19:47;;;;;;;;;26.50;26.00;;;;;12.46;77.89;-19544.59;4851064;29;45550;-85
2022/12/28 02:22:34;;;;;;;;;28.00;27.25;;;;;12.45;77.57;-19544.19;4848188;29;45324;-84
2022/12/28 02:25:30;;;;;;;;;22.00;22.00;;;;;12.22;77.79;-19538.13;4856405;29;45646;-84
2022/12/28 02:28:07;;;;;;;;;26.50;24.25;;;;;12.32;77.77;-19540.69;4859748;29;46148;-84
2022/12/28 02:30:42;;;;;;;;;31.50;29.00;;;;;12.44;77.87;-19544.06;4846381;29;45374;-84
2022/12/28 02:33:35;;;;;;;;;29.50;27.25;;;;;12.08;77.94;-19534.50;4857763;29;45418;-84
2022/12/28 02:36:07;;;;;;;;;29.75;28.25;;;;;12.16;77.47;-19536.53;4858639;29;45443;-84
2022/12/28 02:38:46;;;;;;;;;27.50;26.75;;;;;12.10;77.69;-19535.03;4857258;29;45692;-85
2022/12/28 02:41:14;;;;;;;;;26.00;26.00;;;;;12.53;77.68;-19546.22;4855693;29;45623;-85
2022/12/28 02:43:40;;;;;;;;;26.50;26.50;;;;;12.54;77.91;-19546.50;4846010;29;45281;-84
2022/12/28 02:51:57;;;;;;;;;23.75;23.75;;;;;12.59;77.66;-19547.84;4849005;29;45681;-84
2022/12/28 02:57:54;;;;;;;;;27.25;27.25;;;;;12.08;77.24;-19534.38;4855660;29;45619;-84
2022/12/28 03:00:23;;;;;;;;;24.25;24.25;;;;;12.57;77.39;-19547.44;4845535;29;45431;-85
2022/12/28 03:03:09;;;;;;;;;27.25;26.00;;;;;12.69;77.32;-19550.53;4857186;29;45630;-84
2022/12/28 03:08:56;;;;;;;;;26.25;25.00;;;;;12.52;77.00;-19545.94;4855793;29;46336;-84
2022/12/28 03:11:32;;;;;;;;;33.50;31.75;;;;;12.68;77.17;-19550.38;4847990;29;45776;-85
2022/12/28 03:14:13;;;;;;;;;25.75;25.75;;;;;12.68;77.33;-19550.25;4852415;29;45398;-85
2022/12/28 03:33:26;;;;;;;;;30.25;29.25;;;;;12.21;77.28;-19537.88;4847080;29;45475;-85
2022/12/28 03:36:05;;;;;;;;;31.75;29.75;;;;;12.76;77.34;-19552.28;4843067;29;45761;-85
2022/12/28 03:38:55;;;;;;;;;34.25;32.25;;;;;12.41;77.31;-19543.25;4858422;29;45539;-85
2022/12/28 03:41:32;;;;;;;;;28.50;26.50;;;;;12.75;77.19;-19552.00;4809500;29;47142;-85
2022/12/28 03:44:06;;;;;;;;;28.50;28.25;;;;;12.73;77.43;-19551.47;4805587;29;45466;-85
2022/12/28 03:46:43;;;;;;;;;28.00;27.75;;;;;12.74;77.38;-19551.75;4816661;29;46578;-84
2022/12/28 03:49:09;;;;;;;;;28.75;25.00;;;;;12.05;77.53;-19533.69;4822879;29;45464;-85
2022/12/28 03:51:34;;;;;;;;;31.25;30.50;;;;;12.77;77.54;-19552.53;4810904;29;45675;-85
2022/12/28 03:53:59;;;;;;;;;28.75;28.25;;;;;12.17;77.50;-19536.94;4813409;29;45416;-86
2022/12/28 03:56:27;;;;;;;;;25.25;24.00;;;;;12.77;77.61;-19552.53;4806930;29;45422;-86
2022/12/28 03:58:53;;;;;;;;;32.50;31.25;;;;;12.75;77.71;-19552.00;4805270;29;45462;-85
2022/12/28 04:01:19;;;;;;;;;30.00;26.75;;;;;12.32;77.74;-19540.84;4812030;29;47316;-86
2022/12/28 04:03:44;;;;;;;;;32.75;31.00;;;;;12.75;77.55;-19552.13;4810500;29;45506;-85
2022/12/28 04:06:15;;;;;;;;;29.00;28.50;;;;;12.78;77.54;-19552.94;4812282;29;45743;-85
2022/12/28 04:08:42;;;;;;;;;33.75;32.00;;;;;12.00;77.66;-19532.34;4813684;29;45669;-85
2022/12/28 04:11:07;;;;;;;;;29.00;28.00;;;;;12.79;77.90;-19553.22;4805411;29;48382;-85
2022/12/28 04:13:32;;;;;;;;;28.00;28.00;;;;;12.21;77.64;-19537.88;4822225;29;45493;-84
2022/12/28 04:16:00;;;;;;;;;27.75;27.25;;;;;12.60;77.42;-19548.25;4810877;29;45499;-85
2022/12/28 04:18:26;;;;;;;;;24.75;24.75;;;;;11.96;77.57;-19531.41;4831324;29;45563;-85
2022/12/28 04:20:52;;;;;;;;;31.75;30.75;;;;;12.73;77.71;-19551.59;4843706;29;48315;-84
2022/12/28 04:23:18;;;;;;;;;33.25;31.75;;;;;12.73;77.74;-19551.47;4855549;29;47083;-84
2022/12/28 04:25:43;;;;;;;;;34.25;32.50;;;;;11.56;77.71;-19520.75;4859919;29;45432;-83
2022/12/28 04:28:08;;;;;;;;;34.75;32.50;;;;;12.28;77.83;-19539.75;4851007;29;45340;-84
2022/12/28 04:30:34;;;;;;;;;34.50;32.25;;;;;12.54;77.84;-19546.50;4843573;29;46032;-84
2022/12/28 04:32:59;;;;;;;;;37.75;33.25;;;;;12.72;77.89;-19551.19;4849428;29;45420;-84
2022/12/28 04:35:25;;;;;;;;;35.00;32.75;;;;;12.27;77.77;-19539.50;4849926;29;45303;-84
2022/12/28 04:37:50;;;;;;;;;33.50;31.50;;;;;12.72;78.08;-19551.19;4857988;29;45482;-84
2022/12/28 04:40:15;;;;;;;;;34.00;30.75;;;;;12.68;77.99;-19550.38;4855299;29;45591;-83
2022/12/28 04:42:41;;;;;;;;;35.75;32.75;;;;;12.68;78.27;-19550.25;4844232;29;45626;-84
2022/12/28 04:45:07;;;;;;;;;30.50;29.75;;;;;12.24;77.95;-19538.69;4846115;29;45358;-84
2022/12/28 04:47:32;;;;;;;;;43.75;37.00;;;;;12.34;78.37;-19541.38;4861340;29;45653;-84
2022/12/28 04:49:57;;;;;;;;;36.75;33.00;;;;;12.64;78.63;-19549.19;4861857;29;46441;-85
2022/12/28 04:52:23;;;;;;;;;32.25;29.50;;;;;12.23;78.70;-19538.41;4861717;29;45749;-84
2022/12/28 04:54:48;;;;;;;;;21.00;19.50;;;;;12.34;78.75;-19541.22;4860550;29;45431;-84
2022/12/28 04:57:13;;;;;;;;;15.00;15.00;;;;;12.61;78.94;-19548.38;4845264;29;45711;-84
2022/12/28 04:59:39;;;;;;;;;22.50;19.50;;;;;12.44;79.27;-19544.06;4843714;29;45569;-84
2022/12/28 05:02:05;;;;;;;;;19.75;18.00;;;;;12.57;79.44;-19547.28;4843504;29;45553;-84
2022/12/28 05:04:31;;;;;;;;;16.50;16.50;;;;;11.30;79.43;-19513.88;4845866;29;45475;-84
2022/12/28 05:06:56;;;;;;;;;20.50;19.25;;;;;12.55;80.08;-19546.88;4847035;29;45420;-84
2022/12/28 05:09:21;;;;;;;;;8.67;7.67;;;;;12.44;80.45;-19544.06;4847796;29;48305;-85
2022/12/28 05:11:47;;;;;;;;;6.33;5.00;;;;;12.54;80.55;-19546.50;4841595;29;45768;-84
2022/12/28 05:14:13;;;;;;;;;5.00;5.00;;;;;12.57;80.93;-19547.28;4856280;29;45350;-84
2022/12/28 05:16:39;;;;;;;;;5.00;3.67;;;;;11.98;80.58;-19531.94;4852583;29;45466;-84
2022/12/28 05:19:04;;;;;;;;;3.67;3.67;;;;;11.30;80.61;-19513.88;4838905;29;47654;-85
2022/12/28 05:21:30;;;;;;;;;6.00;6.00;;;;;11.97;81.01;-19531.69;4858236;29;45427;-84
2022/12/28 05:23:56;;;;;;;;;6.00;3.33;;;;;11.76;81.31;-19526.00;4841837;29;45515;-84
2022/12/28 05:26:24;;;;;;;;;3.00;3.00;;;;;12.56;81.27;-19547.16;4856150;29;45503;-85
2022/12/28 05:28:50;;;;;;;;;6.00;6.00;;;;;12.55;81.53;-19546.75;4863396;29;46506;-85
2022/12/28 05:31:19;;;;;;;;;6.00;4.67;;;;;12.55;81.32;-19546.75;4862846;29;45319;-84
2022/12/28 05:33:46;;;;;;;;;6.00;4.00;;;;;12.06;81.18;-19533.97;4847796;29;45531;-85
2022/12/28 05:36:23;;;;;;;;;4.67;3.67;;;;;12.44;81.90;-19544.06;4851011;29;45412;-84
2022/12/28 05:38:49;;;;;;;;;4.00;4.00;;;;;12.02;81.76;-19532.88;4856617;29;45484;-84
2022/12/28 05:41:20;;;;;;;;;4.00;4.00;;;;;12.42;81.59;-19543.53;4857431;29;45413;-84
2022/12/28 05:43:46;;;;;;;;;3.33;3.00;;;;;12.44;81.97;-19544.06;4859469;29;45431;-84
2022/12/28 05:46:15;;;;;;;;;4.67;4.00;;;;;12.36;82.08;-19541.91;4859339;29;45481;-84
2022/12/28 05:48:41;;;;;;;;;3.00;3.00;;;;;12.48;82.35;-19545.00;4852465;29;46857;-84
2022/12/28 05:51:09;;;;;;;;;2.00;2.00;;;;;12.43;81.90;-19543.78;4845704;29;45419;-83
2022/12/28 05:53:35;;;;;;;;;4.67;3.67;;;;;12.03;82.13;-19533.28;4859774;29;45421;-84
2022/12/28 05:56:07;;;;;;;;;2.00;2.00;;;;;12.46;82.08;-19544.47;4854390;29;45294;-84
2022/12/28 05:58:33;;;;;;;;;4.67;4.00;;;;;12.44;82.18;-19544.06;4863567;29;46279;-84
2022/12/28 06:01:16;;;;;;;;;3.33;3.33;;;;;11.99;82.29;-19532.09;4854554;29;45363;-85
2022/12/28 06:03:43;;;;;;;;;5.00;3.67;;;;;11.94;82.15;-19530.72;4854162;29;45539;-84
2022/12/28 06:06:16;;;;;;;;;5.00;3.00;;;;;12.50;82.44;-19545.41;4863340;29;45296;-84
2022/12/28 06:08:43;;;;;;;;;3.67;3.00;;;;;12.35;82.01;-19541.50;4861023;29;47006;-84
2022/12/28 06:11:12;;;;;;;;;4.67;4.67;;;;;12.51;82.17;-19545.69;4847477;29;45925;-85
2022/12/28 06:13:37;;;;;;;;;5.00;3.00;;;;;12.53;82.47;-19546.34;4865687;29;45420;-84
2022/12/28 06:16:14;;;;;;;;;4.00;4.00;;;;;12.04;82.71;-19533.56;4855100;29;45728;-83
2022/12/28 06:18:39;;;;;;;;;3.67;3.00;;;;;12.60;82.36;-19548.09;4870723;29;46360;-83
2022/12/28 06:21:09;;;;;;;;;3.33;3.33;;;;;12.60;82.07;-19548.25;4857662;29;45758;-83
2022/12/28 06:23:35;;;;;;;;;4.33;4.33;;;;;12.61;82.16;-19548.50;4868607;29;45460;-84
2022/12/28 06:26:03;;;;;;;;;5.33;5.33;;;;;12.41;82.08;-19543.25;4859771;29;45396;-83
2022/12/28 06:28:29;;;;;;;;;8.00;4.00;;;;;12.61;81.91;-19548.38;4878255;29;47063;-84
2022/12/28 06:31:06;;;;;;;;;4.67;4.67;;;;;12.51;81.71;-19545.81;4864429;29;45516;-83
2022/12/28 06:33:32;;;;;;;;;4.00;4.00;;;;;11.89;81.61;-19529.38;4864159;29;45452;-84
2022/12/28 06:35:58;;;;;;;;;4.67;4.67;;;;;11.69;81.60;-19524.13;4840769;29;45708;-84
2022/12/28 06:38:24;;;;;;;;;2.67;2.67;;;;;11.92;81.38;-19530.34;4862199;29;45911;-84
2022/12/28 06:40:49;;;;;;;;;5.33;3.33;;;;;12.01;81.24;-19532.75;4849958;29;45532;-84
2022/12/28 06:43:15;;;;;;;;;5.00;3.67;;;;;12.07;81.65;-19534.22;4851151;29;45350;-84
2022/12/28 06:45:40;;;;;;;;;6.67;5.00;;;;;11.84;81.66;-19528.31;4852417;29;45582;-84
2022/12/28 06:48:05;;;;;;;;;7.00;4.00;;;;;12.60;81.48;-19548.25;4853238;29;45505;-83
2022/12/28 06:50:31;;;;;;;;;1.67;1.00;;;;;12.61;81.44;-19548.38;4863963;29;45660;-84
2022/12/28 06:52:56;;;;;;;;;3.00;2.67;;;;;12.10;81.78;-19535.03;4850709;29;45707;-84
2022/12/28 06:55:21;;;;;;;;;4.00;4.00;;;;;12.61;81.54;-19548.50;4858534;29;45613;-83
2022/12/28 06:57:47;;;;;;;;;6.67;3.67;;;;;12.64;81.14;-19549.19;4854206;29;45442;-83
2022/12/28 07:00:12;;;;;;;;;4.00;4.00;;;;;12.51;81.26;-19545.81;4854653;29;45599;-83
2022/12/28 07:02:38;;;;;;;;;4.00;4.00;;;;;12.32;81.01;-19540.69;4835777;29;45551;-84
2022/12/28 07:05:03;;;;;;;;;4.00;4.00;;;;;12.71;80.99;-19550.94;4845797;29;45671;-84
2022/12/28 07:07:29;;;;;;;;;3.00;3.00;;;;;12.52;80.54;-19546.09;4845856;29;45508;-84
2022/12/28 07:09:54;;;;;;;;;4.67;3.67;;;;;12.51;80.67;-19545.81;4841266;29;45490;-83
2022/12/28 07:12:19;;;;;;;;;3.00;3.00;;;;;12.75;80.90;-19552.13;4845939;29;45746;-84
2022/12/28 07:14:45;;;;;;;;;6.00;4.33;;;;;12.71;80.96;-19550.94;4856684;29;45589;-84
2022/12/28 07:17:10;;;;;;;;;4.33;4.33;;;;;12.34;80.79;-19541.22;4852286;29;46297;-86
2022/12/28 07:19:35;;;;;;;;;5.67;5.67;;;;;12.44;80.38;-19544.06;4842753;29;45685;-87
2022/12/28 07:22:02;;;;;;;;;5.00;4.00;;;;;11.94;80.26;-19530.72;4851376;29;45491;-86
2022/12/28 07:24:27;;;;;;;;;4.33;4.33;;;;;12.56;80.14;-19547.03;4855899;29;45776;-82
2022/12/28 07:26:53;;;;;;;;;4.67;4.00;;;;;12.82;80.28;-19553.88;4852041;29;45365;-83
2022/12/28 07:29:18;;;;;;;;;3.00;3.00;;;;;12.84;79.90;-19554.56;4851402;29;45665;-82
2022/12/28 07:31:43;;;;;;;;;5.00;5.00;;;;;12.33;79.96;-19540.97;4852627;29;45381;-82
2022/12/28 07:34:09;;;;;;;;;5.33;5.33;;;;;12.89;80.21;-19555.78;4845650;29;45562;-85
2022/12/28 07:36:34;;;;;;;;;5.67;5.67;;;;;12.78;79.77;-19552.81;4841749;29;47417;-86
2022/12/28 07:39:00;;;;;;;;;6.67;6.33;;;;;12.08;79.65;-19534.50;4848440;29;45454;-85
2022/12/28 07:41:31;;;;;;;;;5.33;5.00;;;;;12.89;80.13;-19555.91;4856808;29;45486;-83
2022/12/28 07:43:58;;;;;;;;;5.33;5.33;;;;;12.92;80.01;-19556.56;4860588;29;45486;-82
2022/12/28 07:46:26;;;;;;;;;5.00;5.00;;;;;12.40;79.76;-19542.84;4846143;29;48011;-83
2022/12/28 07:48:52;;;;;;;;;5.67;4.00;;;;;12.50;79.94;-19545.41;4853232;29;45557;-83
2022/12/28 07:51:28;;;;;;;;;5.00;5.00;;;;;12.88;79.54;-19555.50;4845185;29;45334;-83
2022/12/28 07:53:55;;;;;;;;;7.00;5.00;;;;;12.86;79.75;-19555.09;4857836;29;45583;-81
2022/12/28 07:56:22;;;;;;;;;7.00;5.33;;;;;12.85;79.76;-19554.84;4848976;29;46274;-82
2022/12/28 07:58:54;;;;;;;;;4.67;4.67;;;;;12.76;79.42;-19552.28;4855367;29;45556;-83
2022/12/28 08:01:21;;;;;;;;;8.00;6.00;;;;;12.81;79.78;-19553.63;4853993;29;45486;-82
2022/12/28 08:03:47;;;;;;;;;5.67;5.67;;;;;12.45;79.50;-19544.34;4853359;29;45560;-82
2022/12/28 08:06:18;;;;;;;;;6.00;6.00;;;;;12.07;79.43;-19534.22;4849356;29;46328;-83
2022/12/28 08:08:46;;;;;;;;;5.00;5.00;;;;;12.55;79.50;-19546.88;4841443;29;45536;-83
2022/12/28 08:11:14;;;;;;;;;5.67;5.00;;;;;12.72;79.70;-19551.19;4861517;29;45598;-83
2022/12/28 08:13:43;;;;;;;;;6.33;6.33;;;;;12.85;79.45;-19554.84;4847535;29;45728;-83
2022/12/28 08:16:10;;;;;;;;;5.00;5.00;;;;;11.96;79.36;-19531.41;4856196;29;45515;-84
2022/12/28 08:18:36;;;;;;;;;7.33;6.67;;;;;12.83;79.71;-19554.28;4851038;29;45589;-84
2022/12/28 08:21:05;;;;;;;;;5.33;5.33;;;;;12.81;79.50;-19553.63;4858831;29;45506;-84
2022/12/28 08:23:31;;;;;;;;;6.33;5.33;;;;;12.81;79.63;-19553.75;4854710;29;45368;-84
2022/12/28 08:26:14;;;;;;;;;5.33;5.33;;;;;12.64;79.21;-19549.19;4860182;29;45383;-83
2022/12/28 08:28:41;;;;;;;;;7.33;7.33;;;;;12.75;79.37;-19552.13;4855200;29;45468;-83
2022/12/28 08:31:16;;;;;;;;;8.00;8.00;;;;;12.35;79.43;-19541.50;4854051;29;45495;-84
2022/12/28 08:33:42;;;;;;;;;7.00;7.00;;;;;12.36;79.53;-19541.91;4848870;29;45583;-84
2022/12/28 08:36:08;;;;;;;;;7.67;7.67;;;;;12.17;79.45;-19536.78;4840094;29;47271;-84
2022/12/28 08:38:35;;;;;;;;;7.67;7.00;;;;;12.70;79.51;-19550.78;4856984;29;45518;-85
2022/12/28 08:41:03;;;;;;;;;12.67;12.67;;;;;11.97;79.41;-19531.69;4856472;29;45749;-84
2022/12/28 08:43:29;;;;;;;;;7.00;6.00;;;;;12.55;79.41;-19546.88;4863129;29;45423;-85
2022/12/28 08:46:03;;;;;;;;;4.00;4.00;;;;;12.41;79.63;-19543.13;4864442;29;46740;-85
2022/12/28 08:48:29;;;;;;;;;7.33;7.00;;;;;12.79;79.75;-19553.22;4832998;29;45430;-86
2022/12/28 08:51:00;;;;;;;;;3.33;3.33;;;;;12.81;79.50;-19553.63;4858542;29;45204;-86
2022/12/28 08:53:26;;;;;;;;;10.00;8.33;;;;;11.92;79.35;-19530.19;4854457;29;45562;-85
2022/12/28 08:55:51;;;;;;;;;11.00;11.00;;;;;12.20;79.24;-19537.59;4853388;29;46344;-86
2022/12/28 08:58:17;;;;;;;;;16.75;15.75;;;;;11.39;79.13;-19516.44;4847287;29;45423;-85
2022/12/28 09:00:42;;;;;;;;;7.00;7.00;;;;;12.36;79.20;-19541.78;4855899;29;45578;-85
2022/12/28 09:03:08;;;;;;;;;13.75;11.25;;;;;12.79;79.10;-19553.09;4863423;29;45479;-84
2022/12/28 09:05:37;;;;;;;;;20.75;19.75;;;;;11.79;78.88;-19526.97;4867585;29;45361;-83
2022/12/28 09:08:02;;;;;;;;;15.75;15.75;;;;;12.78;79.14;-19552.81;4846451;29;45736;-83
2022/12/28 09:10:27;;;;;;;;;16.75;16.75;;;;;12.65;78.86;-19549.59;4853642;29;45402;-83
2022/12/28 09:12:53;;;;;;;;;20.25;19.75;;;;;12.90;78.77;-19556.03;4855953;29;45631;-83
2022/12/28 09:15:18;;;;;;;;;19.25;18.25;;;;;12.92;78.79;-19556.56;4864653;29;46084;-83
2022/12/28 09:17:43;;;;;;;;;21.00;20.75;;;;;12.93;78.53;-19556.84;4846703;29;45527;-83
2022/12/28 09:20:09;;;;;;;;;23.00;23.00;;;;;11.78;78.79;-19526.56;4856550;29;45391;-84
2022/12/28 09:22:35;;;;;;;;;27.50;26.75;;;;;12.54;78.57;-19546.63;4856715;29;45420;-84
2022/12/28 09:25:00;;;;;;;;;22.75;21.50;;;;;12.95;78.53;-19557.38;4861176;29;45642;-84
2022/12/28 09:27:25;;;;;;;;;23.75;23.25;;;;;12.96;78.38;-19557.66;4859071;29;46903;-84
2022/12/28 09:29:50;;;;;;;;;26.00;26.00;;;;;11.86;78.02;-19528.72;4862192;29;45440;-84
2022/12/28 09:32:16;;;;;;;;;19.75;19.75;;;;;12.62;77.92;-19548.63;4850389;29;45870;-84
2022/12/28 09:34:41;;;;;;;;;25.50;25.50;;;;;12.22;78.30;-19538.28;4848626;29;46346;-84
2022/12/28 09:37:07;;;;;;;;;22.00;21.00;;;;;12.97;78.36;-19557.94;4855341;29;45261;-83
2022/12/28 09:39:33;;;;;;;;;24.00;22.25;;;;;12.70;78.30;-19550.78;4865418;29;45531;-84
2022/12/28 09:42:07;;;;;;;;;21.75;20.75;;;;;13.02;78.05;-19559.28;4859713;29;45473;-83
2022/12/28 09:44:54;;;;;;;;;19.00;18.00;;;;;13.07;78.33;-19560.63;4858298;29;46192;-83
2022/12/28 09:47:46;;;;;;;;;24.75;24.75;;;;;12.85;78.03;-19554.84;4855751;29;45501;-84
2022/12/28 09:50:28;;;;;;;;;25.75;25.75;;;;;13.12;78.35;-19561.81;4855655;29;45468;-84
2022/12/28 09:53:14;;;;;;;;;39.25;35.50;;;;;12.32;77.67;-19540.84;4857678;29;45564;-84
2022/12/28 09:55:44;;;;;;;;;38.50;34.50;;;;;13.15;77.91;-19562.63;4845945;29;47760;-85
2022/12/28 09:58:15;;;;;;;;;42.00;35.75;;;;;13.16;77.92;-19562.91;4837736;29;45836;-85
2022/12/28 10:00:44;;;;;;;;;38.50;35.25;;;;;12.88;77.78;-19555.63;4853358;29;45494;-85
2022/12/28 10:03:25;;;;;;;;;37.75;34.50;;;;;13.21;77.69;-19564.25;4853438;29;45664;-85
2022/12/28 10:05:52;;;;;;;;;36.50;34.00;;;;;12.84;77.57;-19554.44;4858023;29;45692;-84
2022/12/28 10:08:21;;;;;;;;;41.00;35.75;;;;;12.54;77.49;-19546.63;4862740;29;45521;-85
2022/12/28 10:10:47;;;;;;;;;42.50;37.50;;;;;13.40;77.24;-19569.22;4855250;29;45656;-85
2022/12/28 10:13:26;;;;;;;;;31.25;29.00;;;;;13.27;77.29;-19565.88;4848878;29;45462;-85
2022/12/28 10:15:52;;;;;;;;;48.50;40.75;;;;;13.44;76.71;-19570.16;4840096;29;47706;-83
2022/12/28 10:18:23;;;;;;;;;52.00;44.00;;;;;13.05;76.67;-19560.06;4862966;29;45512;-84
2022/12/28 10:20:49;;;;;;;;;55.67;46.00;;;;;13.10;76.46;-19561.28;4862804;29;45422;-84
2022/12/28 10:23:20;;;;;;;;;53.00;44.00;;;;;12.94;76.61;-19557.13;4853239;29;45552;-85
2022/12/28 10:25:47;;;;;;;;;60.00;49.33;;;;;12.38;76.45;-19542.31;4858311;29;46207;-84
2022/12/28 10:28:15;;;;;;;;;48.25;41.75;;;;;12.50;76.18;-19545.41;4835657;29;45717;-84
2022/12/28 10:30:47;;;;;;;;;56.67;47.33;;;;;13.41;76.43;-19569.34;4846963;29;45412;-84
2022/12/28 10:33:17;;;;;;;;;57.67;47.33;;;;;12.59;76.27;-19547.97;4838175;29;45646;-85
2022/12/28 10:35:51;;;;;;;;;52.50;45.50;;;;;12.40;76.43;-19542.84;4857897;29;46193;-84
2022/12/28 10:38:32;;;;;;;;;38.25;35.75;;;;;12.67;75.85;-19550.13;4856851;29;45639;-87
2022/12/28 10:41:07;;;;;;;;;42.00;37.25;;;;;13.22;76.26;-19564.38;4844109;29;45546;-89
2022/12/28 10:43:38;;;;;;;;;38.25;34.75;;;;;12.97;76.09;-19557.78;4845376;29;45552;-86
2022/12/28 10:46:13;;;;;;;;;40.50;35.50;;;;;12.27;75.95;-19539.50;4843112;29;46345;-86
2022/12/28 10:48:38;;;;;;;;;39.00;35.00;;;;;12.86;75.99;-19555.09;4835328;29;45877;-85
2022/12/28 10:51:11;;;;;;;;;42.25;37.25;;;;;12.85;75.77;-19554.84;4841372;29;45442;-86
2022/12/28 10:53:48;;;;;;;;;43.25;37.50;;;;;13.33;75.97;-19567.34;4841581;29;45484;-86
2022/12/28 10:56:19;;;;;;;;;44.75;38.50;;;;;13.35;75.66;-19567.75;4831486;29;47270;-83
2022/12/28 10:58:46;;;;;;;;;47.50;40.25;;;;;13.34;75.71;-19567.59;4839117;29;45543;-84
2022/12/28 11:01:11;;;;;;;;;53.33;44.67;;;;;13.31;75.65;-19566.81;4845312;29;45537;-83
2022/12/28 11:03:56;;;;;;;;;50.50;43.00;;;;;13.38;75.46;-19568.56;4863701;29;45435;-84
2022/12/28 11:06:24;;;;;;;;;53.00;44.00;;;;;13.42;75.20;-19569.75;4842263;29;46396;-83
2022/12/28 11:09:14;;;;;;;;;46.50;40.50;;;;;13.13;75.00;-19562.09;4842772;29;45245;-83
2022/12/28 11:11:41;;;;;;;;;50.25;42.75;;;;;13.48;74.99;-19571.25;4842752;29;45354;-84
2022/12/28 11:14:23;;;;;;;;;36.75;34.75;;;;;13.39;74.79;-19568.97;4845863;29;45502;-85
2022/12/28 11:16:49;;;;;;;;;47.25;40.25;;;;;13.24;74.88;-19564.91;4841177;29;46493;-84
2022/12/28 11:19:15;;;;;;;;;27.25;27.00;;;;;13.58;74.92;-19573.78;4839141;29;45678;-84
2022/12/28 11:21:42;;;;;;;;;12.75;12.75;;;;;13.27;74.39;-19565.72;4840685;29;45484;-83
2022/12/28 11:24:16;;;;;;;;;12.67;11.00;;;;;13.67;73.90;-19576.22;4842424;29;45569;-84
2022/12/28 11:26:45;;;;;;;;;10.67;10.67;;;;;13.66;73.89;-19575.94;4843399;29;47638;-83
2022/12/28 11:29:13;;;;;;;;;9.33;9.33;;;;;13.62;74.25;-19574.88;4826835;29;45491;-88
2022/12/28 11:31:53;;;;;;;;;11.50;11.50;;;;;13.70;73.82;-19577.16;4839776;29;45586;-86
2022/12/28 11:34:22;;;;;;;;;4.33;2.67;;;;;13.70;73.90;-19577.03;4821449;29;45573;-87
2022/12/28 11:36:48;;;;;;;;;3.00;3.00;;;;;13.31;73.73;-19566.81;4837940;29;46672;-87
2022/12/28 11:39:41;;;;;;;;;4.00;4.00;;;;;13.48;73.97;-19571.38;4808283;29;45526;-85
2022/12/28 11:42:07;;;;;;;;;3.67;3.67;;;;;13.66;73.70;-19576.09;4861244;29;45480;-86
2022/12/28 11:44:38;;;;;;;;;2.33;2.33;;;;;13.68;73.49;-19576.63;4847200;29;45514;-85
2022/12/28 11:47:31;;;;;;;;;4.33;4.33;;;;;13.37;73.46;-19568.41;4858813;29;46145;-85
2022/12/28 11:50:38;;;;;;;;;2.00;2.00;;;;;13.43;73.58;-19569.91;4860020;29;45367;-85